»·PEaware :: FFT2127 KLAS-KSAN

FFT2127 :: KLAS-KSAN

FLIGHT INFORMATION

Flight Status: Arrived
Operator:
Frontier Airlines
More flights by this operator :: More flights under this callsign
Pilot: Christian B. (29430)
Aircraft: AIRBUS A320
(A320)
More flights by this aircraft type
Origin: KLAS McCarran Intl
United States
Destination: KSAN San Diego Intl-Lindbergh
United States
More flights between these airports :: More routes between these airports
Route: BOACH8 LVELL LUCKI1
File this flight plan on PilotEdge
Remarks:
Altitude:
(Current/Filed)
34,000ft
Speed:
(Current/Filed)
425kts
Departed: 06-Jan-21 09:19 PM
Arrived: 06-Jan-21 10:15 PM
Distance/Time
Traveled:
225nm/0:56
Distance/Time
To Go:
Arrived

Flight Plot

Page will automatically refresh every two minutes.

Flight plan parsing failed; only flown route is shown


Map Options




Map Legend


Flown Route
Filed Route
Departure Airport
Arrival Airport
Navaid (VOR, NDB)
Fix

Horizontal Profiles

Position Reports

Time Latitude Longitude Heading Altitude Ground
Speed
06-Jan-21 20:47 36.079925 -115.135322 359 2090ft 0kts
06-Jan-21 20:49 36.079925 -115.135322 359 2090ft 0kts
06-Jan-21 20:50 36.079925 -115.135322 359 2090ft 0kts
06-Jan-21 20:51 36.079925 -115.135322 359 2090ft 0kts
06-Jan-21 20:51 36.079925 -115.135322 359 2090ft 0kts
06-Jan-21 20:52 36.079925 -115.135322 359 2090ft 0kts
06-Jan-21 20:53 36.079925 -115.135322 359 2090ft 0kts
06-Jan-21 20:54 36.079925 -115.135322 359 2090ft 0kts
06-Jan-21 20:55 36.079925 -115.135322 359 2090ft 0kts
06-Jan-21 20:58 36.079925 -115.135322 359 2090ft 0kts
06-Jan-21 20:59 36.079925 -115.135322 359 2090ft 0kts
06-Jan-21 21:00 36.079925 -115.135322 359 2090ft 0kts
06-Jan-21 21:01 36.079925 -115.135322 359 2090ft 0kts
06-Jan-21 21:02 36.079925 -115.135322 359 2090ft 0kts
06-Jan-21 21:03 36.079925 -115.135322 359 2090ft 0kts
06-Jan-21 21:04 36.079925 -115.135322 359 2090ft 0kts
06-Jan-21 21:05 36.079925 -115.135322 359 2090ft 0kts
06-Jan-21 21:06 36.079925 -115.135322 359 2090ft 0kts
06-Jan-21 21:07 36.079879 -115.135322 359 2090ft 2kts
06-Jan-21 21:08 36.079415 -115.135322 359 2091ft 2kts
06-Jan-21 21:09 36.079437 -115.135322 359 2091ft 0kts
06-Jan-21 21:10 36.079437 -115.135322 359 2091ft 0kts
06-Jan-21 21:11 36.079437 -115.135322 359 2091ft 0kts
06-Jan-21 21:17 36.077471 -115.121478 141 2038ft 5kts
06-Jan-21 21:18 36.076405 -115.128949 269 2063ft 103kts
06-Jan-21 21:19 36.080642 -115.183639 276 4079ft 202kts
06-Jan-21 21:20 36.064235 -115.263762 216 5954ft 271kts
06-Jan-21 21:21 35.993905 -115.291608 195 6377ft 271kts
06-Jan-21 21:22 35.918337 -115.308613 186 10285ft 282kts
06-Jan-21 21:23 35.838416 -115.311908 179 13849ft 295kts
06-Jan-21 21:24 35.754844 -115.304295 176 17055ft 308kts
06-Jan-21 21:25 35.668331 -115.297448 181 19069ft 321kts
06-Jan-21 21:26 35.578803 -115.299045 183 19297ft 320kts
06-Jan-21 21:27 35.486162 -115.302879 183 19888ft 361kts
06-Jan-21 21:28 35.381749 -115.307213 183 22136ft 382kts
06-Jan-21 21:29 35.273998 -115.311319 184 24473ft 393kts
06-Jan-21 21:30 35.163651 -115.315546 185 26622ft 401kts
06-Jan-21 21:31 35.050894 -115.319950 185 28525ft 411kts
06-Jan-21 21:32 34.934807 -115.324461 184 30224ft 422kts
06-Jan-21 21:33 34.816270 -115.329286 189 31882ft 429kts
06-Jan-21 21:34 34.701892 -115.368207 201 33416ft 433kts
06-Jan-21 21:35 34.587581 -115.416529 202 34211ft 440kts
06-Jan-21 21:36 34.472575 -115.466259 202 34252ft 439kts
06-Jan-21 21:37 34.357828 -115.516159 204 34251ft 439kts
06-Jan-21 21:38 34.250556 -115.584998 215 34253ft 435kts
06-Jan-21 21:39 34.151508 -115.668663 216 34248ft 434kts
06-Jan-21 21:40 34.051960 -115.751315 217 34249ft 434kts
06-Jan-21 21:41 33.952521 -115.834376 217 34250ft 436kts
06-Jan-21 21:42 33.853049 -115.917649 217 33387ft 431kts
06-Jan-21 21:43 33.756526 -115.998389 217 30810ft 413kts
06-Jan-21 21:44 33.664025 -116.075650 217 28376ft 396kts
06-Jan-21 21:45 33.575183 -116.149728 217 25798ft 384kts
06-Jan-21 21:46 33.488741 -116.221533 217 24271ft 369kts
06-Jan-21 21:47 33.404821 -116.291265 217 22506ft 365kts
06-Jan-21 21:48 33.324192 -116.358127 217 20144ft 361kts
06-Jan-21 21:49 33.226042 -116.394700 192 17708ft 361kts
06-Jan-21 21:50 33.128779 -116.417124 192 15391ft 351kts
06-Jan-21 21:51 33.034270 -116.439181 192 13172ft 340kts
06-Jan-21 21:52 32.944062 -116.459531 192 12077ft 303kts
06-Jan-21 21:53 32.864968 -116.478715 208 12020ft 289kts
06-Jan-21 21:54 32.818641 -116.553901 241 12002ft 284kts
06-Jan-21 21:55 32.781061 -116.635905 242 10817ft 280kts
06-Jan-21 21:56 32.744291 -116.717273 242 9206ft 277kts
06-Jan-21 21:57 32.708656 -116.797680 242 7703ft 274kts
06-Jan-21 21:58 32.673725 -116.877653 242 7024ft 271kts
06-Jan-21 21:59 32.639115 -116.956679 242 6991ft 270kts
06-Jan-21 22:00 32.604509 -117.034867 242 6990ft 270kts
06-Jan-21 22:01 32.607318 -117.121475 281 7000ft 269kts
06-Jan-21 22:02 32.623050 -117.205432 282 6301ft 259kts
06-Jan-21 22:03 32.638658 -117.287370 282 5143ft 246kts
06-Jan-21 22:04 32.653534 -117.366422 282 3572ft 244kts
06-Jan-21 22:05 32.668094 -117.444618 282 3004ft 238kts
06-Jan-21 22:06 32.689274 -117.509896 336 2987ft 209kts
06-Jan-21 22:07 32.746205 -117.503129 25 2978ft 207kts
06-Jan-21 22:08 32.771652 -117.444799 72 2975ft 193kts
06-Jan-21 22:09 32.783544 -117.390732 106 2981ft 161kts
06-Jan-21 22:10 32.770347 -117.342603 105 2523ft 169kts
06-Jan-21 22:11 32.758491 -117.292566 105 1637ft 152kts
06-Jan-21 22:12 32.747676 -117.247931 105 877ft 134kts
06-Jan-21 22:13 32.737449 -117.205743 103 120ft 134kts
06-Jan-21 22:14 32.732378 -117.188408 147 25ft 4kts
06-Jan-21 22:15 32.731513 -117.185481 106 24ft 17kts

Navigation Log

Ident Type
Flight plan parsing failed, navigation log unavailable